Time;durP1;ratioP1;P1;durP2;ratioP2;P2;SDS_P1;SDS_P2;PMS_P1;PMS_P2;Temp;Humidity;BMP_temperature;BMP_pressure;BME280_temperature;BME280_humidity;BME280_pressure;Samples;Min_cycle;Max_cycle;Signal;HPM_P1;HPM_P2
2022/08/07 00:00:28;;;;;;;6.58;3.20;;;;;;;14.63;80.77;101147.94;1732175;82;25747;-69
2022/08/07 00:02:56;;;;;;;5.60;3.33;;;;;;;14.60;80.72;101145.05;1713177;82;25217;-70
2022/08/07 00:05:24;;;;;;;6.37;3.40;;;;;;;14.55;80.75;101141.30;1729704;82;27477;-70
2022/08/07 00:07:52;;;;;;;4.30;2.65;;;;;;;14.53;80.69;101144.90;1714693;82;25460;-69
2022/08/07 00:10:18;;;;;;;4.65;2.92;;;;;;;14.49;80.73;101139.86;1723185;82;25354;-69
2022/08/07 00:12:45;;;;;;;5.92;3.12;;;;;;;14.46;80.49;101139.69;1730553;82;25683;-69
2022/08/07 00:15:12;;;;;;;6.58;2.50;;;;;;;14.42;80.50;101141.41;1733739;81;25368;-69
2022/08/07 00:17:38;;;;;;;4.45;2.98;;;;;;;14.37;80.57;101139.66;1721287;82;27440;-69
2022/08/07 00:20:07;;;;;;;5.42;2.77;;;;;;;14.32;80.49;101139.22;1734990;82;25635;-69
2022/08/07 00:22:33;;;;;;;7.77;3.43;;;;;;;14.31;80.73;101144.98;1712789;82;25670;-69
2022/08/07 00:25:00;;;;;;;3.62;3.33;;;;;;;14.26;80.89;101147.27;1734775;82;25679;-69
2022/08/07 00:27:27;;;;;;;9.38;3.17;;;;;;;14.23;80.96;101148.45;1721158;81;25554;-69
2022/08/07 00:29:53;;;;;;;8.18;3.00;;;;;;;14.18;80.77;101154.29;1739895;81;28045;-69
2022/08/07 00:32:20;;;;;;;5.42;2.85;;;;;;;14.13;80.57;101157.14;1716071;82;25601;-69
2022/08/07 00:34:48;;;;;;;5.58;2.70;;;;;;;14.09;80.57;101162.15;1727707;82;25484;-69
2022/08/07 00:37:16;;;;;;;5.62;3.10;;;;;;;14.03;80.66;101156.58;1730240;82;26384;-69
2022/08/07 00:39:42;;;;;;;4.50;2.92;;;;;;;13.98;80.97;101157.53;1737250;82;25555;-69
2022/08/07 00:42:09;;;;;;;6.40;2.90;;;;;;;13.94;80.88;101155.17;1714063;82;27437;-69
2022/08/07 00:44:37;;;;;;;3.47;2.50;;;;;;;13.90;80.78;101154.20;1727409;81;25455;-69
2022/08/07 00:47:07;;;;;;;3.85;2.92;;;;;;;13.85;80.67;101153.77;1728187;82;25399;-69
2022/08/07 00:49:34;;;;;;;3.17;2.83;;;;;;;13.80;80.69;101152.53;1731861;81;25830;-69
2022/08/07 00:52:00;;;;;;;6.37;3.08;;;;;;;13.76;80.94;101155.63;1730577;82;25732;-69
2022/08/07 00:54:27;;;;;;;5.67;3.35;;;;;;;13.71;81.01;101157.11;1735572;82;27379;-69
2022/08/07 00:56:53;;;;;;;5.00;2.70;;;;;;;13.66;81.17;101151.23;1725603;81;25602;-69
2022/08/07 00:59:20;;;;;;;5.47;3.47;;;;;;;13.62;80.99;101158.38;1733949;81;25573;-69
2022/08/07 01:01:49;;;;;;;3.83;2.75;;;;;;;13.57;81.06;101154.42;1717993;82;25642;-69
2022/08/07 01:04:16;;;;;;;5.17;3.00;;;;;;;13.53;81.12;101160.24;1740195;82;25387;-69
2022/08/07 01:06:44;;;;;;;5.15;2.77;;;;;;;13.48;81.14;101161.72;1717364;82;28124;-69
2022/08/07 01:09:11;;;;;;;5.45;2.95;;;;;;;13.43;81.25;101158.55;1735195;82;25677;-69
2022/08/07 01:11:39;;;;;;;6.00;2.75;;;;;;;13.39;81.36;101155.66;1731506;81;25624;-69
2022/08/07 01:14:07;;;;;;;5.35;2.87;;;;;;;13.35;81.28;101157.92;1728644;82;25758;-69
2022/08/07 01:16:36;;;;;;;7.42;3.00;;;;;;;13.28;81.12;101161.05;1740682;81;25411;-69
2022/08/07 01:19:04;;;;;;;5.65;2.95;;;;;;;13.22;81.01;101156.27;1721855;82;33682;-70
2022/08/07 01:21:31;;;;;;;3.20;2.90;;;;;;;13.16;81.02;101151.25;1709796;82;25703;-70
2022/08/07 01:24:00;;;;;;;6.30;2.67;;;;;;;13.08;80.94;101160.38;1729116;82;25663;-70
2022/08/07 01:26:28;;;;;;;3.92;2.98;;;;;;;13.03;81.12;101159.69;1712211;82;25908;-70
2022/08/07 01:28:54;;;;;;;9.98;3.55;;;;;;;12.97;81.26;101160.33;1705504;82;25570;-70
2022/08/07 01:31:30;;;;;;;4.00;3.15;;;;;;;12.89;81.15;101161.86;1711993;82;27331;-69
2022/08/07 01:33:50;;;;;;;3.35;2.80;;;;;;;12.85;81.29;101162.20;1721646;82;25750;-69
2022/08/07 01:36:17;;;;;;;4.67;3.25;;;;;;;12.80;81.28;101161.52;1728174;82;25423;-69
2022/08/07 01:38:44;;;;;;;4.58;3.08;;;;;;;12.76;81.44;101164.59;1733858;82;25623;-69
2022/08/07 01:41:12;;;;;;;5.25;3.02;;;;;;;12.70;81.43;101161.98;1717782;82;25434;-69
2022/08/07 01:43:39;;;;;;;6.05;3.05;;;;;;;12.65;81.52;101166.16;1735073;82;27964;-69
2022/08/07 01:46:06;;;;;;;4.33;3.10;;;;;;;12.61;81.32;101165.69;1729043;82;25657;-69
2022/08/07 01:48:33;;;;;;;6.45;2.98;;;;;;;12.55;81.61;101158.21;1728136;82;25701;-69
2022/08/07 01:51:03;;;;;;;5.03;3.52;;;;;;;12.50;81.32;101161.02;1734744;82;25633;-69
2022/08/07 01:53:33;;;;;;;4.70;3.25;;;;;;;12.44;81.55;101159.50;1731109;81;25648;-68
2022/08/07 01:56:16;;;;;;;4.20;3.00;;;;;;;12.41;81.65;101162.80;1720043;82;27979;-69
2022/08/07 01:58:58;;;;;;;5.12;2.90;;;;;;;12.36;81.80;101159.66;1717783;83;25429;-68
2022/08/07 02:01:29;;;;;;;4.65;2.87;;;;;;;12.30;81.68;101164.34;1720000;82;25456;-67
2022/08/07 02:04:04;;;;;;;4.72;2.95;;;;;;;12.25;81.71;101159.02;1713390;83;25673;-69
2022/08/07 02:06:33;;;;;;;4.58;3.02;;;;;;;12.20;81.82;101168.60;1712157;83;25656;-69
2022/08/07 02:09:04;;;;;;;5.40;3.20;;;;;;;12.15;81.86;101160.55;1710624;82;27376;-68
2022/08/07 02:11:35;;;;;;;4.30;3.12;;;;;;;12.12;82.18;101161.97;1714530;82;25638;-68
2022/08/07 02:14:06;;;;;;;4.92;2.90;;;;;;;12.09;82.07;101161.77;1710693;83;25638;-68
2022/08/07 02:16:35;;;;;;;5.55;3.58;;;;;;;12.05;82.01;101162.09;1716729;82;26426;-68
2022/08/07 02:19:03;;;;;;;;;;;;;;;11.99;81.85;101160.02;1710265;83;25389;-68
2022/08/07 02:21:31;;;;;;;5.33;3.33;;;;;;;11.94;81.73;101162.27;1707747;82;27602;-68
2022/08/07 02:23:59;;;;;;;3.95;3.05;;;;;;;11.90;82.06;101157.69;1717789;82;25632;-68
2022/08/07 02:26:27;;;;;;;4.67;3.00;;;;;;;11.85;82.22;101155.06;1720923;82;25605;-68
2022/08/07 02:28:56;;;;;;;5.45;2.80;;;;;;;11.81;81.59;101154.06;1717231;83;25668;-69
2022/08/07 02:31:24;;;;;;;4.80;2.95;;;;;;;11.75;81.46;101158.20;1713067;83;25463;-69
2022/08/07 02:33:52;;;;;;;6.10;3.25;;;;;;;11.68;81.23;101160.50;1713582;83;27329;-69
2022/08/07 02:36:19;;;;;;;4.67;3.47;;;;;;;11.64;81.27;101154.59;1710987;83;25830;-69
2022/08/07 02:38:47;;;;;;;5.53;2.98;;;;;;;11.61;81.50;101161.39;1702017;82;25456;-69
2022/08/07 02:41:14;;;;;;;6.40;3.95;;;;;;;11.56;81.49;101158.23;1693691;83;25681;-69
2022/08/07 02:43:42;;;;;;;4.40;3.70;;;;;;;11.52;81.60;101153.69;1709343;82;25429;-68
2022/08/07 02:46:10;;;;;;;4.45;4.05;;;;;;;11.50;81.74;101158.60;1720269;82;28055;-68
2022/08/07 02:48:39;;;;;;;4.70;3.05;;;;;;;11.48;82.31;101158.09;1677021;85;25649;-67
2022/08/07 02:51:10;;;;;;;6.05;3.70;;;;;;;11.46;82.51;101159.74;1672630;84;25643;-69
2022/08/07 02:53:39;;;;;;;4.87;3.40;;;;;;;11.44;82.60;101156.53;1670094;85;25505;-69
2022/08/07 02:56:09;;;;;;;;;;;;;;;11.41;82.38;101163.88;1660100;84;25736;-69
2022/08/07 02:58:36;;;;;;;6.73;3.37;;;;;;;11.38;82.48;101168.52;1677616;84;27378;-68
2022/08/07 03:01:03;;;;;;;5.15;4.33;;;;;;;11.33;82.30;101165.89;1645831;86;25654;-69
2022/08/07 03:03:33;;;;;;;4.47;3.50;;;;;;;11.31;82.42;101172.16;1653347;85;25621;-69
2022/08/07 03:06:01;;;;;;;;;;;;;;;11.29;82.59;101168.91;1660382;85;25691;-69
2022/08/07 03:08:28;;;;;;;4.80;3.40;;;;;;;11.26;82.28;101166.80;1659363;85;25650;-68
2022/08/07 03:10:56;;;;;;;6.67;3.58;;;;;;;11.21;82.70;101167.67;1718813;83;27587;-67
2022/08/07 03:13:23;;;;;;;4.00;3.52;;;;;;;11.18;82.58;101164.19;1714110;83;25620;-68
2022/08/07 03:15:51;;;;;;;6.45;3.60;;;;;;;11.15;82.59;101171.01;1683789;84;25404;-68
2022/08/07 03:18:18;;;;;;;5.47;3.98;;;;;;;11.14;82.98;101172.65;1671926;84;26312;-68
2022/08/07 03:20:46;;;;;;;4.97;4.00;;;;;;;11.11;83.01;101167.25;1650190;85;25574;-68
2022/08/07 03:23:13;;;;;;;5.70;4.10;;;;;;;11.10;83.04;101167.02;1642204;85;28285;-68
2022/08/07 03:25:42;;;;;;;4.42;3.35;;;;;;;11.10;83.16;101168.89;1673248;85;25729;-68
2022/08/07 03:28:12;;;;;;;5.28;3.75;;;;;;;11.09;83.40;101180.28;1643673;86;29792;-68
2022/08/07 03:30:39;;;;;;;;;;;;;;;11.07;83.45;101167.59;1656859;86;26290;-68
2022/08/07 03:33:08;;;;;;;5.53;3.90;;;;;;;11.06;83.62;101170.03;1667600;85;25511;-69
2022/08/07 03:35:36;;;;;;;;;;;;;;;11.03;83.45;101171.95;1660121;86;27343;-69
2022/08/07 03:38:06;;;;;;;9.35;7.15;;;;;;;11.03;83.80;101171.43;1665669;85;25703;-69
2022/08/07 03:40:33;;;;;;;9.68;4.85;;;;;;;11.01;83.78;101169.53;1646146;86;25680;-68
2022/08/07 03:43:00;;;;;;;5.33;3.98;;;;;;;11.03;83.85;101174.66;1677012;84;25767;-68
2022/08/07 03:45:28;;;;;;;8.13;4.12;;;;;;;11.02;83.94;101175.78;1670609;85;25619;-68
2022/08/07 03:47:57;;;;;;;6.72;4.28;;;;;;;11.03;84.32;101179.55;1657541;86;27336;-68
2022/08/07 03:50:24;;;;;;;7.20;4.30;;;;;;;11.02;84.33;101178.48;1672572;85;25469;-68
2022/08/07 03:52:53;;;;;;;5.97;4.10;;;;;;;11.03;84.46;101176.84;1657516;85;25603;-68
2022/08/07 03:55:19;;;;;;;7.00;4.75;;;;;;;11.05;84.52;101175.20;1670480;85;25640;-68
2022/08/07 03:57:47;;;;;;;4.85;4.25;;;;;;;11.06;84.71;101174.64;1653345;86;25414;-68
2022/08/07 04:00:16;;;;;;;5.20;4.20;;;;;;;11.10;84.91;101181.08;1681178;85;27587;-69
2022/08/07 04:02:44;;;;;;;5.97;4.08;;;;;;;11.12;85.19;101184.33;1649486;85;25699;-70
2022/08/07 04:05:11;;;;;;;5.58;4.17;;;;;;;11.15;85.36;101183.19;1650573;85;25951;-69
2022/08/07 04:07:43;;;;;;;7.40;4.17;;;;;;;11.19;85.83;101190.98;1657941;86;25739;-69
2022/08/07 04:10:10;;;;;;;7.90;4.65;;;;;;;11.25;86.20;101186.84;1654857;86;25616;-70
2022/08/07 04:12:37;;;;;;;6.45;4.50;;;;;;;11.29;86.12;101190.05;1658346;86;27473;-70
2022/08/07 04:15:06;;;;;;;5.53;4.83;;;;;;;11.33;86.15;101187.55;1653146;86;25738;-69
2022/08/07 04:17:33;;;;;;;6.53;4.90;;;;;;;11.36;86.22;101187.77;1661972;86;25865;-68
2022/08/07 04:19:59;;;;;;;8.23;4.50;;;;;;;11.40;86.38;101190.70;1653377;86;25553;-68
2022/08/07 04:22:26;;;;;;;5.15;4.65;;;;;;;11.41;86.58;101195.03;1679761;85;25626;-68
2022/08/07 04:24:53;;;;;;;6.37;4.85;;;;;;;11.51;86.55;101199.48;1664658;85;27183;-68
2022/08/07 04:27:20;;;;;;;6.05;5.35;;;;;;;11.55;86.58;101199.97;1653314;86;25679;-68
2022/08/07 04:29:46;;;;;;;11.35;4.97;;;;;;;11.59;86.75;101198.83;1657319;86;25491;-68
2022/08/07 04:32:14;;;;;;;8.58;5.03;;;;;;;11.66;86.91;101199.81;1653349;86;25668;-68
2022/08/07 04:34:41;;;;;;;9.25;5.30;;;;;;;11.70;87.13;101198.14;1659208;86;25699;-68
2022/08/07 04:37:08;;;;;;;7.78;5.58;;;;;;;11.77;87.31;101199.37;1649660;86;28133;-68
2022/08/07 04:39:36;;;;;;;7.47;5.10;;;;;;;11.84;87.54;101203.63;1642493;86;25510;-68
2022/08/07 04:42:04;;;;;;;6.83;5.22;;;;;;;11.91;87.77;101210.30;1643970;86;25447;-68
2022/08/07 04:44:30;;;;;;;6.78;5.10;;;;;;;11.99;88.03;101211.54;1653361;85;25767;-69
2022/08/07 04:47:10;;;;;;;7.40;5.80;;;;;;;12.05;88.10;101219.03;1660077;85;25580;-68
2022/08/07 04:50:07;;;;;;;7.53;5.35;;;;;;;12.10;88.34;101212.97;1660418;86;27420;-68
2022/08/07 04:53:13;;;;;;;10.20;5.33;;;;;;;12.19;88.39;101223.14;1636958;86;25796;-68
2022/08/07 04:55:51;;;;;;;7.35;5.53;;;;;;;12.28;88.64;101221.38;1648315;86;25635;-68
2022/08/07 04:58:24;;;;;;;10.28;5.55;;;;;;;12.37;88.65;101221.49;1683933;83;25803;-68
2022/08/07 05:01:02;;;;;;;8.68;5.65;;;;;;;12.46;88.88;101226.47;1653697;85;25594;-67
2022/08/07 05:03:52;;;;;;;10.68;5.70;;;;;;;12.53;88.89;101226.87;1656085;85;26875;-68
2022/08/07 05:06:27;;;;;;;6.85;4.72;;;;;;;12.62;89.06;101239.23;1662492;85;25648;-68
2022/08/07 05:09:14;;;;;;;8.20;5.37;;;;;;;12.71;89.40;101235.50;1646587;86;25600;-68
2022/08/07 05:11:47;;;;;;;6.50;5.03;;;;;;;12.82;89.62;101241.56;1650125;84;26173;-69
2022/08/07 05:14:28;;;;;;;7.10;4.65;;;;;;;12.91;89.65;101240.31;1685795;85;25660;-68
2022/08/07 05:16:58;;;;;;;7.05;5.15;;;;;;;13.00;89.66;101247.20;1686855;84;27339;-68
2022/08/07 05:19:29;;;;;;;9.38;5.25;;;;;;;13.12;89.80;101245.33;1686816;84;27166;-68
2022/08/07 05:21:59;;;;;;;8.30;4.80;;;;;;;13.22;89.97;101249.20;1686741;84;25548;-69
2022/08/07 05:24:27;;;;;;;7.62;4.37;;;;;;;13.32;89.92;101244.94;1676086;84;25638;-69
2022/08/07 05:26:58;;;;;;;8.03;4.47;;;;;;;13.45;90.35;101250.12;1651619;85;25608;-69
2022/08/07 05:29:27;;;;;;;6.72;3.77;;;;;;;13.56;90.08;101252.84;1683636;84;27399;-69
2022/08/07 05:31:55;;;;;;;4.42;3.85;;;;;;;13.69;90.36;101249.85;1661817;85;25789;-68
2022/08/07 05:34:23;;;;;;;5.97;3.72;;;;;;;13.85;90.43;101255.73;1657691;86;25762;-69
2022/08/07 05:36:52;;;;;;;8.33;4.43;;;;;;;13.98;90.54;101252.16;1682479;84;25854;-69
2022/08/07 05:39:21;;;;;;;10.20;4.03;;;;;;;14.14;90.02;101259.39;1653464;85;25678;-69
2022/08/07 05:41:49;;;;;;;6.37;3.90;;;;;;;14.28;89.58;101251.72;1662701;85;27332;-69
2022/08/07 05:44:19;;;;;;;7.30;3.08;;;;;;;14.42;88.63;101258.45;1659609;85;25653;-69
2022/08/07 05:46:49;;;;;;;8.93;2.98;;;;;;;14.58;88.36;101247.42;1665152;85;25421;-69
2022/08/07 05:49:17;;;;;;;8.28;3.12;;;;;;;14.75;88.50;101257.05;1661704;85;25608;-70
2022/08/07 05:51:45;;;;;;;4.53;3.75;;;;;;;14.91;88.32;101254.73;1671060;85;25707;-70
2022/08/07 05:54:13;;;;;;;3.92;3.27;;;;;;;15.07;88.31;101258.39;1659955;85;27342;-69
2022/08/07 05:56:42;;;;;;;4.37;2.98;;;;;;;15.22;88.13;101260.68;1656574;84;25622;-69
2022/08/07 05:59:16;;;;;;;6.75;2.77;;;;;;;15.36;87.83;101252.91;1644822;85;25500;-69
2022/08/07 06:01:45;;;;;;;6.67;2.80;;;;;;;15.49;87.29;101249.25;1620061;86;25561;-69
2022/08/07 06:04:17;;;;;;;9.05;2.58;;;;;;;15.62;86.68;101257.84;1638931;87;25700;-69
2022/08/07 06:06:44;;;;;;;4.00;2.30;;;;;;;15.75;85.84;101258.02;1703694;83;27370;-70
2022/08/07 06:09:11;;;;;;;5.97;2.70;;;;;;;15.86;85.36;101254.67;1711462;83;25662;-70
2022/08/07 06:11:39;;;;;;;3.67;2.17;;;;;;;16.01;85.72;101253.39;1700347;83;25564;-69
2022/08/07 06:14:06;;;;;;;5.22;1.92;;;;;;;16.14;84.75;101258.99;1707975;82;26316;-69
2022/08/07 06:16:34;;;;;;;6.87;2.40;;;;;;;16.23;84.78;101255.70;1711601;83;25464;-69
2022/08/07 06:19:02;;;;;;;3.20;1.52;;;;;;;16.38;84.14;101255.77;1701830;83;27312;-69
2022/08/07 06:21:30;;;;;;;4.67;1.90;;;;;;;16.49;83.17;101248.02;1699606;83;25626;-69
2022/08/07 06:23:57;;;;;;;3.17;1.72;;;;;;;16.64;82.12;101256.25;1705727;83;25557;-69
2022/08/07 06:26:24;;;;;;;3.10;1.50;;;;;;;16.79;82.24;101262.55;1708706;83;25752;-69
2022/08/07 06:28:58;;;;;;;2.65;1.20;;;;;;;16.93;82.19;101260.41;1692570;83;25454;-69
2022/08/07 06:31:25;;;;;;;7.28;4.00;;;;;;;17.11;81.05;101263.05;1712658;82;27316;-69
2022/08/07 06:33:53;;;;;;;6.42;2.45;;;;;;;17.29;80.90;101265.13;1697357;83;25753;-70
2022/08/07 06:36:20;;;;;;;9.85;3.80;;;;;;;17.49;80.70;101268.46;1699914;83;25508;-69
2022/08/07 06:38:47;;;;;;;4.85;1.90;;;;;;;17.69;80.06;101266.88;1693908;83;26484;-68
2022/08/07 06:41:36;;;;;;;3.37;0.93;;;;;;;17.88;78.71;101262.91;1699540;83;25460;-68
2022/08/07 06:44:05;;;;;;;2.85;1.12;;;;;;;18.07;77.35;101272.78;1664458;85;27426;-68
2022/08/07 06:46:32;;;;;;;3.10;1.30;;;;;;;18.31;75.91;101271.85;1689029;83;25810;-69
2022/08/07 06:49:00;;;;;;;2.70;1.10;;;;;;;18.51;75.58;101273.73;1707507;83;25572;-72
2022/08/07 06:51:34;;;;;;;3.12;1.00;;;;;;;18.71;73.96;101269.32;1704631;83;25873;-69
2022/08/07 06:54:02;;;;;;;3.27;1.60;;;;;;;18.93;74.03;101269.45;1709954;83;25394;-69
2022/08/07 06:56:39;;;;;;;4.45;1.32;;;;;;;19.18;72.90;101273.59;1724544;82;28223;-69
2022/08/07 06:59:10;;;;;;;6.78;1.65;;;;;;;19.41;72.25;101276.66;1722234;81;25239;-70
2022/08/07 07:01:38;;;;;;;4.70;1.20;;;;;;;19.66;71.34;101274.64;1728921;82;25570;-69
2022/08/07 07:04:06;;;;;;;8.20;2.25;;;;;;;19.93;71.11;101275.06;1729623;82;25624;-69
2022/08/07 07:06:33;;;;;;;5.67;1.10;;;;;;;20.18;70.33;101277.14;1734196;81;25826;-69
2022/08/07 07:09:27;;;;;;;3.90;1.30;;;;;;;20.44;69.49;101275.27;1735447;82;27324;-69
2022/08/07 07:12:08;;;;;;;3.05;1.25;;;;;;;20.69;68.20;101271.83;1704718;82;25807;-69
2022/08/07 07:14:57;;;;;;;2.10;1.05;;;;;;;20.98;67.33;101273.91;1737992;81;25388;-69
2022/08/07 07:18:04;;;;;;;3.08;1.20;;;;;;;21.28;66.83;101272.03;1737610;82;25617;-70
2022/08/07 07:20:45;;;;;;;4.25;1.10;;;;;;;21.51;65.59;101271.41;1737591;82;25576;-70
2022/08/07 07:23:13;;;;;;;4.33;1.10;;;;;;;21.86;65.32;101268.58;1730743;82;27403;-70
2022/08/07 07:25:43;;;;;;;5.85;1.50;;;;;;;22.16;63.65;101272.91;1725315;81;25862;-69
2022/08/07 07:28:26;;;;;;;3.02;1.27;;;;;;;22.31;62.17;101265.75;1732340;82;25669;-69
2022/08/07 07:30:58;;;;;;;1.37;1.10;;;;;;;22.34;61.42;101262.27;1723096;82;25760;-69
2022/08/07 07:33:27;;;;;;;4.92;1.35;;;;;;;22.51;61.18;101262.38;1723945;82;25696;-69
2022/08/07 07:35:56;;;;;;;8.35;5.08;;;;;;;22.72;59.98;101257.01;1736624;82;29521;-69
2022/08/07 07:38:28;;;;;;;;;;;;;;;22.94;59.72;101263.66;1727116;82;25684;-69
2022/08/07 07:41:00;;;;;;;3.95;1.42;;;;;;;23.21;58.70;101258.98;1686480;84;25621;-68
2022/08/07 07:43:31;;;;;;;2.87;1.10;;;;;;;23.48;57.82;101254.23;1673260;85;25637;-68
2022/08/07 07:45:59;;;;;;;2.20;0.95;;;;;;;23.71;56.56;101256.08;1678146;85;26330;-69
2022/08/07 07:48:49;;;;;;;1.70;0.80;;;;;;;23.91;55.38;101253.20;1673027;85;27325;-69
2022/08/07 07:51:18;;;;;;;2.00;1.07;;;;;;;24.08;54.35;101260.10;1617577;87;25596;-69
2022/08/07 07:53:47;;;;;;;1.25;0.82;;;;;;;24.24;53.98;101253.14;1618336;87;25764;-69
2022/08/07 07:56:15;;;;;;;2.80;0.78;;;;;;;24.41;52.92;101250.95;1614374;88;25947;-69
2022/08/07 07:58:43;;;;;;;2.80;0.68;;;;;;;24.54;52.61;101250.90;1619940;88;26302;-68
2022/08/07 08:01:11;;;;;;;3.47;0.80;;;;;;;24.80;51.91;101252.69;1641517;85;27908;-69
2022/08/07 08:03:40;;;;;;;3.42;0.90;;;;;;;25.00;51.78;101248.30;1629047;87;25862;-68
2022/08/07 08:06:07;;;;;;;;;;;;;;;25.26;50.89;101251.45;1633654;87;25583;-71
2022/08/07 08:08:36;;;;;;;1.42;0.80;;;;;;;25.50;48.99;101249.20;1617377;88;25861;-71
2022/08/07 08:11:06;;;;;;;3.00;1.12;;;;;;;25.73;49.02;101244.75;1660750;85;25420;-69
2022/08/07 08:13:43;;;;;;;4.30;0.70;;;;;;;25.95;49.30;101242.06;1649506;84;27515;-69
2022/08/07 08:16:17;;;;;;;2.33;1.00;;;;;;;26.29;48.50;101248.09;1695070;83;25820;-68
2022/08/07 08:18:45;;;;;;;1.37;0.80;;;;;;;26.59;47.48;101246.91;1700187;83;25741;-69
2022/08/07 08:29:40;;;;;;;4.47;1.10;;;;;;;26.74;43.01;101248.52;1689877;83;25382;-67
2022/08/07 08:32:09;;;;;;;1.10;0.75;;;;;;;26.47;43.56;101248.88;1694298;83;25818;-68
2022/08/07 08:34:39;;;;;;;2.70;0.70;;;;;;;26.65;43.75;101246.75;1700821;83;25839;-69
2022/08/07 08:37:09;;;;;;;4.03;0.75;;;;;;;26.82;43.55;101248.72;1704982;83;25379;-68
2022/08/07 08:39:36;;;;;;;2.85;0.90;;;;;;;27.03;43.38;101250.66;1695989;83;27298;-68
2022/08/07 08:42:08;;;;;;;3.87;1.10;;;;;;;27.33;43.16;101247.28;1711439;83;26546;-68
2022/08/07 08:44:57;;;;;;;1.10;0.90;;;;;;;27.54;41.85;101245.01;1700479;83;25561;-68
2022/08/07 08:47:30;;;;;;;;;;;;;;;27.71;41.19;101243.35;1715247;83;25620;-68
2022/08/07 08:50:23;;;;;;;2.27;0.75;;;;;;;27.95;40.75;101243.83;1695800;83;25655;-68
2022/08/07 08:53:07;;;;;;;5.08;0.80;;;;;;;28.26;40.52;101244.64;1684584;83;29587;-71
2022/08/07 08:55:41;;;;;;;0.95;0.57;;;;;;;28.37;40.20;101242.58;1697961;83;25684;-67
2022/08/07 08:58:19;;;;;;;0.95;0.53;;;;;;;28.33;38.67;101248.75;1705492;83;25438;-67
2022/08/07 09:00:57;;;;;;;1.22;0.60;;;;;;;27.99;38.98;101247.98;1713293;83;25673;-66
2022/08/07 09:03:35;;;;;;;0.70;0.40;;;;;;;27.77;39.02;101251.47;1703058;83;25706;-67
2022/08/07 09:06:13;;;;;;;2.10;0.80;;;;;;;27.88;39.22;101246.63;1679724;83;27496;-68
2022/08/07 09:08:57;;;;;;;2.75;0.60;;;;;;;28.01;39.40;101247.58;1651725;85;25829;-67
2022/08/07 09:11:56;;;;;;;1.00;0.60;;;;;;;28.22;38.79;101246.67;1654907;85;25355;-67
2022/08/07 09:14:39;;;;;;;1.57;0.70;;;;;;;28.39;38.39;101243.56;1689643;84;27763;-67
2022/08/07 09:17:37;;;;;;;4.75;0.60;;;;;;;28.48;37.35;101243.87;1684615;84;25804;-67
2022/08/07 09:20:43;;;;;;;3.08;0.60;;;;;;;28.55;37.15;101231.91;1680373;83;28130;-68
2022/08/07 09:23:56;;;;;;;1.52;0.60;;;;;;;28.74;37.02;101231.96;1698959;83;25841;-67
2022/08/07 09:26:57;;;;;;;2.02;0.75;;;;;;;28.78;36.42;101231.34;1685073;83;25760;-67
2022/08/07 09:29:37;;;;;;;3.98;1.00;;;;;;;28.78;36.09;101228.56;1656741;85;25727;-67
2022/08/07 09:32:09;;;;;;;3.25;0.88;;;;;;;28.83;35.71;101224.72;1665974;85;25829;-68
2022/08/07 09:34:59;;;;;;;1.60;0.60;;;;;;;29.01;35.33;101227.34;1681190;85;26896;-67
2022/08/07 09:37:36;;;;;;;2.47;0.90;;;;;;;29.09;35.92;101220.29;1680336;84;25764;-68
2022/08/07 09:40:25;;;;;;;1.77;1.05;;;;;;;29.30;35.36;101217.27;1681525;84;25885;-67
2022/08/07 09:43:08;;;;;;;1.70;1.10;;;;;;;29.34;35.34;101220.04;1660579;85;25763;-67
2022/08/07 09:45:52;;;;;;;1.65;0.62;;;;;;;29.21;34.51;101216.98;1660837;85;25803;-69
2022/08/07 09:48:41;;;;;;;2.55;1.02;;;;;;;29.06;33.79;101221.31;1656177;85;28370;-69
2022/08/07 09:51:31;;;;;;;;;;;;;;;28.93;34.38;101216.08;1660259;85;25863;-69
2022/08/07 09:54:01;;;;;;;3.83;1.15;;;;;;;28.99;33.79;101215.02;1656190;85;25688;-66
2022/08/07 09:56:42;;;;;;;3.70;0.80;;;;;;;29.01;33.86;101205.64;1659985;85;25754;-66
2022/08/07 09:59:59;;;;;;;2.02;0.70;;;;;;;29.13;34.15;101197.35;1651206;85;25791;-66
2022/08/07 10:02:57;;;;;;;2.02;0.85;;;;;;;29.35;34.43;101193.13;1622882;87;28044;-70
2022/08/07 10:05:53;;;;;;;3.35;1.20;;;;;;;29.75;34.63;101200.98;1624887;87;25725;-70
2022/08/07 10:08:54;;;;;;;2.35;0.68;;;;;;;29.92;34.17;101197.17;1638257;87;25846;-71
2022/08/07 10:11:31;;;;;;;2.50;0.90;;;;;;;29.95;33.44;101201.11;1626896;87;26611;-70
2022/08/07 10:14:48;;;;;;;2.75;0.75;;;;;;;30.02;33.55;101201.02;1626259;87;25574;-68
2022/08/07 10:17:54;;;;;;;1.05;0.65;;;;;;;30.20;33.54;101202.73;1628024;86;28110;-68
2022/08/07 10:21:15;;;;;;;2.27;0.70;;;;;;;30.42;33.36;101192.82;1634453;87;25881;-70
2022/08/07 10:24:02;;;;;;;1.75;0.60;;;;;;;30.64;32.93;101195.25;1627220;87;25829;-69
2022/08/07 10:26:53;;;;;;;0.93;0.60;;;;;;;31.00;32.31;101188.40;1627298;86;25856;-71
2022/08/07 10:29:59;;;;;;;1.35;0.42;;;;;;;31.19;31.79;101194.42;1636590;86;25822;-68
2022/08/07 10:32:57;;;;;;;1.40;0.80;;;;;;;31.29;31.14;101185.03;1626259;85;27475;-70
2022/08/07 10:35:47;;;;;;;4.85;1.75;;;;;;;31.38;30.89;101179.66;1690847;84;25830;-70
2022/08/07 10:39:04;;;;;;;1.98;0.70;;;;;;;31.53;30.64;101178.75;1679420;84;25689;-70
2022/08/07 10:41:47;;;;;;;1.55;0.93;;;;;;;31.60;30.37;101168.83;1674542;84;25736;-70
2022/08/07 10:44:28;;;;;;;2.45;0.70;;;;;;;31.70;30.01;101178.80;1688007;84;25426;-70
2022/08/07 10:47:06;;;;;;;3.20;0.90;;;;;;;31.59;29.37;101180.45;1695569;84;27306;-70
2022/08/07 10:49:50;;;;;;;1.67;0.60;;;;;;;31.23;29.56;101185.38;1699024;84;26006;-74
2022/08/07 10:52:48;;;;;;;1.90;0.75;;;;;;;30.81;29.35;101184.35;1706848;83;26301;-70
2022/08/07 10:55:23;;;;;;;0.97;0.67;;;;;;;30.60;29.90;101179.15;1701539;83;25722;-70
2022/08/07 10:58:11;;;;;;;2.08;0.82;;;;;;;30.67;30.54;101179.05;1712642;83;25698;-71
2022/08/07 11:00:46;;;;;;;3.75;0.90;;;;;;;30.85;30.32;101167.52;1709552;83;27319;-71
2022/08/07 11:03:32;;;;;;;1.72;0.50;;;;;;;31.02;30.38;101174.01;1709172;83;25854;-70
2022/08/07 11:06:07;;;;;;;1.45;0.60;;;;;;;31.24;30.47;101171.56;1677724;83;25668;-69
2022/08/07 11:08:44;;;;;;;1.60;0.70;;;;;;;31.53;29.64;101167.56;1703275;82;26397;-71
2022/08/07 11:11:21;;;;;;;1.80;0.68;;;;;;;31.67;29.37;101169.88;1705020;83;25643;-70
2022/08/07 11:13:58;;;;;;;0.80;0.40;;;;;;;31.70;28.93;101165.59;1712104;83;27588;-71
2022/08/07 11:16:40;;;;;;;0.72;0.60;;;;;;;31.79;28.91;101160.20;1709848;83;25382;-70
2022/08/07 11:19:30;;;;;;;3.92;0.60;;;;;;;31.81;28.64;101161.17;1711397;83;25590;-69
2022/08/07 11:22:25;;;;;;;1.90;0.90;;;;;;;31.86;28.20;101155.65;1713650;83;25659;-70
2022/08/07 11:25:18;;;;;;;1.75;0.60;;;;;;;32.04;28.08;101151.81;1672856;85;25731;-70
2022/08/07 11:28:07;;;;;;;2.25;0.53;;;;;;;32.09;27.66;101151.31;1663246;85;27322;-73
2022/08/07 11:31:12;;;;;;;0.85;0.50;;;;;;;32.15;26.96;101148.80;1677470;85;25709;-72
2022/08/07 11:33:50;;;;;;;2.50;0.70;;;;;;;32.06;26.94;101155.59;1669096;85;25696;-70
2022/08/07 11:36:50;;;;;;;1.02;0.35;;;;;;;31.70;27.25;101148.04;1665559;85;26583;-72
2022/08/07 11:43:02;;;;;;;1.87;0.45;;;;;;;31.51;26.93;101150.45;1607192;88;27318;-70
2022/08/07 11:46:17;;;;;;;6.78;0.82;;;;;;;31.64;27.26;101144.36;1633342;87;25795;-71
2022/08/07 11:49:23;;;;;;;1.47;0.60;;;;;;;31.47;26.61;101149.10;1635306;87;25901;-71
2022/08/07 11:52:27;;;;;;;2.70;0.40;;;;;;;31.52;26.85;101147.84;1607091;88;25799;-70
2022/08/07 11:55:14;;;;;;;1.98;0.80;;;;;;;31.33;26.24;101138.25;1580642;89;26488;-71
2022/08/07 11:57:52;;;;;;;0.68;0.50;;;;;;;31.39;26.56;101126.72;1556016;90;28621;-73
2022/08/07 12:00:25;;;;;;;0.80;0.50;;;;;;;31.60;26.68;101122.70;1563932;90;25888;-69
2022/08/07 12:03:20;;;;;;;1.52;0.50;;;;;;;31.66;26.66;101125.76;1569434;90;25786;-73
2022/08/07 12:06:13;;;;;;;0.57;0.47;;;;;;;31.80;26.28;101123.23;1552998;90;26878;-73
2022/08/07 12:09:11;;;;;;;6.00;1.32;;;;;;;31.96;27.03;101132.22;1559696;90;26121;-72
2022/08/07 12:11:58;;;;;;;1.37;0.57;;;;;;;32.16;26.69;101125.97;1555216;90;28046;-71
2022/08/07 12:14:29;;;;;;;1.47;0.50;;;;;;;32.25;26.20;101119.75;1557090;90;25812;-72